Valdez, AK

5:44 AM AKDT on September 04, 2015 (GMT -0800)
Valdez | | Change Station
CLOSE
Current Station
Airport
Location: Valdez Airport,
Elevation: 121 ft
Nearby Weather Stations

Elev 121 ft 61.13 °N, 146.25 °W | Updated 8 minutes ago

Overcast
Overcast
45 °F
Feels Like 45 °F
N
0
Wind Variable Wind from North

Today
High -- | Low -- °F
--% Chance of Precip.
Yesterday
High -- | Low -- °F
Precip. -- in
6:44 AM 8:42 PM
Waning Gibbous, 59% visible
Pressure 29.91 in
Visibility 10.0 miles
Clouds Few 3300 ft
Scattered Clouds 4800 ft
Overcast 6000 ft
Dew Point 41 °F
Humidity 87%
Rainfall 0.32 in
Snow Depth Not available.
UV 0 out of 12
Pollen Not available.
Air Quality Not available.
Flu Activity Not available.
METAR PAVD 041336Z 00000KT 10SM FEW033 SCT048 OVC060 07/05 A2991 RMK AO1 P0002
Pressure 29.91 in
Visibility 10.0 miles
Clouds Few 3300 ft
Scattered Clouds 4800 ft
Overcast 6000 ft
Dew Point 41 °F
Humidity 87%
Rainfall 0.32 in
Snow Depth Not available.
UV 0 out of 12
Pollen Not available.
Air Quality Not available.
Flu Activity Not available.
METAR PAVD 041336Z 00000KT 10SM FEW033 SCT048 OVC060 07/05 A2991 RMK AO1 P0002

10-Day Weather Forecast

×

Almanac

Astronomy

Sep. 04, 2015 Rise Set
Actual Time
Civil Twilight
Nautical Twilight
Astronomical Twilight
Moon
Length of Visible Light
Length of Day
Tomorrow will be .
, % of the Moon is Illuminated

Today's Extremes

State Highs State Lows

Community

WunderPhotos

Upload Photos

1,852,181 photos uploaded!

WunderBlogs® & News

Nearby

Air Quality

  Air Quality AQ Index Pollutant
Not available.

Snow Depth

Station Depth Elevation

Earthquake Activity

City Distance Mag. Time & Date
Minimum magnitude displayed is 2.5.

Coastal Water Temperatures

Place Temperature

Stations

Nearby Weather Stations

Station Location Temp. Windchill Dew Point Humidity Wind Precip. Elev Updated Type